createdAt,value
2023-10-13T00:02:11.263Z,5.30
2023-10-13T00:04:38.008Z,5.33
2023-10-13T00:07:05.503Z,4.50
2023-10-13T00:09:33.069Z,4.53
2023-10-13T00:12:00.793Z,5.50
2023-10-13T00:14:35.871Z,5.90
2023-10-13T00:17:04.746Z,6.07
2023-10-13T00:19:38.526Z,6.33
2023-10-13T00:22:10.121Z,5.60
2023-10-13T00:24:43.216Z,9.07
2023-10-13T00:27:24.948Z,6.07
2023-10-13T00:30:04.604Z,5.07
2023-10-13T00:32:32.746Z,5.00
2023-10-13T00:35:05.561Z,5.03
2023-10-13T00:37:41.744Z,5.07
2023-10-13T00:40:24.949Z,4.20
2023-10-13T00:42:54.472Z,4.17
2023-10-13T00:45:21.194Z,4.80
2023-10-13T00:47:57.133Z,4.00
2023-10-13T00:50:24.430Z,4.30
2023-10-13T00:52:51.484Z,4.27
2023-10-13T00:55:22.870Z,3.77
2023-10-13T00:57:54.600Z,3.43
2023-10-13T01:00:28.720Z,4.00
2023-10-13T01:02:56.487Z,4.13
2023-10-13T01:05:24.080Z,3.77
2023-10-13T01:07:53.334Z,4.03
2023-10-13T01:10:20.571Z,4.07
2023-10-13T01:12:47.679Z,3.10
2023-10-13T01:15:20.580Z,3.50
2023-10-13T01:17:47.301Z,3.43
2023-10-13T01:20:21.061Z,3.80
2023-10-13T01:22:55.682Z,4.13
2023-10-13T01:25:26.163Z,3.63
2023-10-13T01:27:52.832Z,3.73
2023-10-13T01:30:26.501Z,4.33
2023-10-13T01:32:54.532Z,3.77
2023-10-13T01:35:25.802Z,3.80
2023-10-13T01:37:52.665Z,3.30
2023-10-13T01:40:20.926Z,4.10
2023-10-13T01:42:55.578Z,4.80
2023-10-13T01:45:22.100Z,4.60
2023-10-13T01:47:51.234Z,4.87
2023-10-13T01:50:21.409Z,5.47
2023-10-13T01:52:48.195Z,5.20
2023-10-13T01:55:14.996Z,4.80
2023-10-13T01:57:42.929Z,7.60
2023-10-13T02:00:19.297Z,5.97
2023-10-13T02:02:50.415Z,6.30
2023-10-13T02:05:17.578Z,5.53
2023-10-13T02:07:45.737Z,6.00
2023-10-13T02:10:13.171Z,6.03
2023-10-13T02:12:43.078Z,6.10
2023-10-13T02:15:12.649Z,6.57
2023-10-13T02:17:42.196Z,7.07
2023-10-13T02:20:10.888Z,6.00
2023-10-13T02:22:38.842Z,7.07
2023-10-13T02:25:06.513Z,8.27
2023-10-13T02:27:40.943Z,6.33
2023-10-13T02:30:13.437Z,6.40
2023-10-13T02:32:43.990Z,6.93
2023-10-13T02:35:15.910Z,6.50
2023-10-13T02:37:44.509Z,6.27
2023-10-13T02:40:12.362Z,6.67
2023-10-13T02:42:39.462Z,6.40
2023-10-13T02:45:08.385Z,6.23
2023-10-13T02:47:35.030Z,7.23
2023-10-13T02:50:12.236Z,7.67
2023-10-13T02:52:41.875Z,7.53
2023-10-13T02:55:10.577Z,9.07
2023-10-13T02:57:36.963Z,7.67
2023-10-13T03:00:16.733Z,8.20
2023-10-13T03:02:46.044Z,9.07
2023-10-13T03:05:14.080Z,8.37
2023-10-13T03:07:43.442Z,9.10
2023-10-13T03:10:10.804Z,9.40
2023-10-13T03:12:37.763Z,8.17
2023-10-13T03:15:13.177Z,8.27
2023-10-13T03:17:43.950Z,9.30
2023-10-13T03:20:13.296Z,9.83
2023-10-13T03:22:40.578Z,9.40
2023-10-13T03:25:08.779Z,9.50
2023-10-13T03:28:02.645Z,9.80
2023-10-13T03:30:36.354Z,9.60
2023-10-13T03:33:07.868Z,9.60
2023-10-13T03:35:42.396Z,9.37
2023-10-13T03:38:17.847Z,9.73
2023-10-13T03:40:56.791Z,9.80
2023-10-13T03:43:24.108Z,10.77
2023-10-13T03:45:54.541Z,10.87
2023-10-13T03:48:29.052Z,11.00
2023-10-13T03:51:03.960Z,11.40
2023-10-13T03:53:34.054Z,11.23
2023-10-13T03:56:12.485Z,12.23
2023-10-13T03:58:42.519Z,12.83
2023-10-13T04:01:12.294Z,12.23
2023-10-13T04:03:39.324Z,14.87
2023-10-13T04:06:06.956Z,14.13
2023-10-13T04:08:54.466Z,13.47
2023-10-13T04:11:59.976Z,13.63
2023-10-13T04:14:58.128Z,14.53
2023-10-13T04:17:26.458Z,15.47
2023-10-13T04:20:09.458Z,14.33
2023-10-13T04:22:52.057Z,15.20
2023-10-13T04:25:35.887Z,17.20
2023-10-13T04:28:17.281Z,16.47
2023-10-13T04:31:00.461Z,15.90
2023-10-13T04:33:51.580Z,16.30
2023-10-13T04:36:36.483Z,16.47
2023-10-13T04:39:17.469Z,16.13
2023-10-13T04:41:58.220Z,17.20
2023-10-13T04:44:43.498Z,16.37
2023-10-13T04:47:18.122Z,17.90
2023-10-13T04:49:52.971Z,18.10
2023-10-13T04:52:38.295Z,18.77
2023-10-13T04:55:33.373Z,17.50
2023-10-13T04:58:11.530Z,18.13
2023-10-13T05:01:16.276Z,19.23
2023-10-13T05:04:09.117Z,18.97
2023-10-13T05:06:54.203Z,20.43
2023-10-13T05:09:38.836Z,19.70
2023-10-13T05:12:24.342Z,19.27
2023-10-13T05:15:09.935Z,19.97
2023-10-13T05:17:54.500Z,19.33
2023-10-13T05:20:39.363Z,19.23
2023-10-13T05:23:23.150Z,19.27
2023-10-13T05:26:08.048Z,19.77
2023-10-13T05:28:53.373Z,19.50
2023-10-13T05:31:39.014Z,18.73
2023-10-13T05:34:23.770Z,19.17
2023-10-13T05:37:08.755Z,19.30
2023-10-13T05:39:53.544Z,18.73
2023-10-13T05:42:38.340Z,19.30
2023-10-13T05:45:23.482Z,18.93
2023-10-13T05:48:02.700Z,18.83
2023-10-13T05:50:47.914Z,19.00
2023-10-13T05:53:29.144Z,18.53
2023-10-13T05:56:19.484Z,18.10
2023-10-13T05:59:04.260Z,16.70
2023-10-13T06:01:49.180Z,17.57
2023-10-13T06:04:34.672Z,18.63
2023-10-13T06:07:19.390Z,17.30
2023-10-13T06:10:04.502Z,18.70
2023-10-13T06:12:49.123Z,17.03
2023-10-13T06:15:34.543Z,17.23
2023-10-13T06:18:19.157Z,16.40
2023-10-13T06:21:04.835Z,17.27
2023-10-13T06:23:50.786Z,16.33
2023-10-13T06:26:35.815Z,17.67
2023-10-13T06:29:02.638Z,16.73
2023-10-13T06:31:29.443Z,16.33
2023-10-13T06:33:56.666Z,17.47
2023-10-13T06:36:24.332Z,15.97
2023-10-13T06:38:56.694Z,16.77
2023-10-13T06:41:31.141Z,15.90
2023-10-13T06:44:00.904Z,15.80
2023-10-13T06:46:29.159Z,16.77
2023-10-13T06:48:59.628Z,16.60
2023-10-13T06:51:31.430Z,15.13
2023-10-13T06:53:58.487Z,14.33
2023-10-13T06:56:28.392Z,15.57
2023-10-13T06:58:59.730Z,14.63
2023-10-13T07:01:27.436Z,14.57
2023-10-13T07:03:54.666Z,14.00
2023-10-13T07:06:21.758Z,15.10
2023-10-13T07:08:52.563Z,13.37
2023-10-13T07:11:23.255Z,13.30
2023-10-13T07:13:53.003Z,12.40
2023-10-13T07:16:30.043Z,11.67
2023-10-13T07:19:04.756Z,11.33
2023-10-13T07:21:31.725Z,10.87
2023-10-13T07:24:08.700Z,10.57
2023-10-13T07:26:37.540Z,11.43
2023-10-13T07:29:08.450Z,9.80
2023-10-13T07:31:35.228Z,10.40
2023-10-13T07:34:10.471Z,10.43
2023-10-13T07:36:39.994Z,10.23
2023-10-13T07:39:23.350Z,10.37
2023-10-13T07:41:54.515Z,10.30
2023-10-13T07:44:25.151Z,9.30
2023-10-13T07:46:59.558Z,9.10
2023-10-13T07:49:31.640Z,7.93
2023-10-13T07:52:01.674Z,9.37
2023-10-13T07:54:29.120Z,8.17
2023-10-13T07:56:56.223Z,10.93
2023-10-13T07:59:24.521Z,8.40
2023-10-13T08:02:12.761Z,8.60
2023-10-13T08:04:39.505Z,7.57
2023-10-13T08:07:14.232Z,8.50
2023-10-13T08:09:44.014Z,8.10
2023-10-13T08:12:12.196Z,8.27
2023-10-13T08:14:40.655Z,8.13
2023-10-13T08:17:09.871Z,8.03
2023-10-13T08:19:45.671Z,8.07
2023-10-13T08:22:24.232Z,7.57
2023-10-13T08:25:11.340Z,8.20
2023-10-13T08:27:49.391Z,8.17
2023-10-13T08:30:26.800Z,7.60
2023-10-13T08:32:57.322Z,7.33
2023-10-13T08:35:36.926Z,7.80
2023-10-13T08:38:27.310Z,7.67
2023-10-13T08:41:17.945Z,7.17
2023-10-13T08:43:51.011Z,7.00
2023-10-13T08:46:29.151Z,7.70
2023-10-13T08:49:14.949Z,7.47
2023-10-13T08:51:45.866Z,8.00
2023-10-13T08:54:20.392Z,7.63
2023-10-13T08:56:56.616Z,7.23
2023-10-13T08:59:23.571Z,7.23
2023-10-13T09:02:00.153Z,7.10
2023-10-13T09:04:33.915Z,7.23
2023-10-13T09:07:09.342Z,7.87
2023-10-13T09:10:14.170Z,7.33
2023-10-13T09:13:01.203Z,7.50
2023-10-13T09:15:50.392Z,7.37
2023-10-13T09:18:42.491Z,6.50
2023-10-13T09:21:30.379Z,7.17
2023-10-13T09:24:17.502Z,6.57
2023-10-13T09:26:45.433Z,6.83
2023-10-13T09:29:20.201Z,7.20
2023-10-13T09:31:51.502Z,6.57
2023-10-13T09:34:24.117Z,6.57
2023-10-13T09:36:55.735Z,6.80
2023-10-13T09:39:35.367Z,7.93
2023-10-13T09:42:03.902Z,7.03
2023-10-13T09:44:31.897Z,7.03
2023-10-13T09:47:08.587Z,7.13
2023-10-13T09:49:49.463Z,7.20
2023-10-13T09:52:20.046Z,7.40
2023-10-13T09:55:00.410Z,6.73
2023-10-13T09:57:35.115Z,6.90
2023-10-13T10:00:33.063Z,7.00
2023-10-13T10:03:15.132Z,7.20
2023-10-13T10:05:49.777Z,7.00
2023-10-13T10:08:32.475Z,7.00
2023-10-13T10:11:07.949Z,9.03
2023-10-13T10:13:42.186Z,7.93
2023-10-13T10:16:15.002Z,7.40
2023-10-13T10:18:42.796Z,6.93
2023-10-13T10:21:10.956Z,7.30
2023-10-13T10:23:39.934Z,6.50
2023-10-13T10:26:15.805Z,6.87
2023-10-13T10:28:44.001Z,7.10
2023-10-13T10:31:13.295Z,7.03
2023-10-13T10:33:41.797Z,6.23
2023-10-13T10:36:14.589Z,6.77
2023-10-13T10:38:54.961Z,7.10
2023-10-13T10:41:33.141Z,6.73
2023-10-13T10:44:03.288Z,7.80
2023-10-13T10:46:38.575Z,7.23
2023-10-13T10:49:06.126Z,6.80
2023-10-13T10:51:34.521Z,6.60
2023-10-13T10:54:11.879Z,6.87
2023-10-13T10:56:38.937Z,7.10
2023-10-13T10:59:08.802Z,6.60
2023-10-13T11:01:47.630Z,6.63
2023-10-13T11:04:18.930Z,6.50
2023-10-13T11:06:50.138Z,6.83
2023-10-13T11:09:31.970Z,7.47
2023-10-13T11:12:15.189Z,7.37
2023-10-13T11:14:43.565Z,7.27
2023-10-13T11:17:18.725Z,7.33
2023-10-13T11:19:45.537Z,7.20
2023-10-13T11:22:29.564Z,7.80
2023-10-13T11:24:59.505Z,7.80
2023-10-13T11:27:44.726Z,8.27
2023-10-13T11:30:15.156Z,7.87
2023-10-13T11:32:43.334Z,6.90
2023-10-13T11:35:20.491Z,7.13
2023-10-13T11:37:56.616Z,7.47
2023-10-13T11:40:46.433Z,7.47
2023-10-13T11:43:15.749Z,6.87
2023-10-13T11:45:55.948Z,7.50
2023-10-13T11:48:35.128Z,7.40
2023-10-13T11:51:06.040Z,6.90
2023-10-13T11:53:33.283Z,7.70
2023-10-13T11:56:00.350Z,7.83
2023-10-13T11:58:29.056Z,7.43
2023-10-13T12:01:09.266Z,6.93
2023-10-13T12:03:57.289Z,6.97
2023-10-13T12:06:33.644Z,6.43
2023-10-13T12:09:14.494Z,6.90
2023-10-13T12:11:42.366Z,6.80
2023-10-13T12:14:17.317Z,6.90
2023-10-13T12:16:49.107Z,6.27
2023-10-13T12:19:17.509Z,7.83
2023-10-13T12:21:44.529Z,6.90
2023-10-13T12:24:22.800Z,6.82
2023-10-13T12:26:55.961Z,5.93
2023-10-13T12:29:28.634Z,6.00
2023-10-13T12:32:06.593Z,6.13
2023-10-13T12:34:47.146Z,6.47
2023-10-13T12:37:38.264Z,6.20
2023-10-13T12:40:24.183Z,6.85
2023-10-13T12:43:09.573Z,6.30
2023-10-13T12:45:57.801Z,7.27
2023-10-13T12:48:56.963Z,6.55
2023-10-13T12:51:39.002Z,6.97
2023-10-13T12:54:07.003Z,5.87
2023-10-13T12:56:33.785Z,6.57
2023-10-13T12:59:00.878Z,6.78
2023-10-13T13:01:33.329Z,5.97
2023-10-13T13:04:04.006Z,7.13
2023-10-13T13:06:31.465Z,6.28
2023-10-13T13:08:59.281Z,6.70
2023-10-13T13:11:27.455Z,6.00
2023-10-13T13:13:54.596Z,6.20
2023-10-13T13:16:24.466Z,6.97
2023-10-13T13:18:51.336Z,6.95
2023-10-13T13:21:23.489Z,6.28
2023-10-13T13:23:51.016Z,6.38
2023-10-13T13:26:18.123Z,5.95
2023-10-13T13:28:45.780Z,6.75
2023-10-13T13:31:13.041Z,6.38
2023-10-13T13:33:42.780Z,5.68
2023-10-13T13:36:16.569Z,6.88
2023-10-13T13:38:46.517Z,5.90
2023-10-13T13:41:16.335Z,7.05
2023-10-13T13:43:55.251Z,6.00
2023-10-13T13:46:25.441Z,6.20
2023-10-13T13:48:58.752Z,5.22
2023-10-13T13:51:28.107Z,6.75
2023-10-13T13:53:55.943Z,6.57
2023-10-13T13:56:25.955Z,5.75
2023-10-13T13:58:53.134Z,5.80
2023-10-13T14:01:22.007Z,6.38
2023-10-13T14:03:50.984Z,5.45
2023-10-13T14:06:21.698Z,5.45
2023-10-13T14:08:49.130Z,5.05
2023-10-13T14:11:34.506Z,5.40
2023-10-13T14:14:04.633Z,5.47
2023-10-13T14:16:34.286Z,5.68
2023-10-13T14:19:07.990Z,5.28
2023-10-13T14:21:35.550Z,5.22
2023-10-13T14:24:03.380Z,5.28
2023-10-13T14:26:31.864Z,5.47
2023-10-13T14:29:02.275Z,5.95
2023-10-13T14:31:30.648Z,6.00
2023-10-13T14:33:57.669Z,4.90
2023-10-13T14:36:28.952Z,6.15
2023-10-13T14:38:56.212Z,5.72
2023-10-13T14:41:23.498Z,6.32
2023-10-13T14:43:51.079Z,5.88
2023-10-13T14:54:51.825Z,5.88
2023-10-13T14:57:28.271Z,5.88
2023-10-13T15:00:30.066Z,6.53
2023-10-13T15:02:57.417Z,5.75
2023-10-13T15:05:24.829Z,6.32
2023-10-13T15:07:51.908Z,7.30
2023-10-13T15:10:19.583Z,6.72
2023-10-13T15:12:46.472Z,6.85
2023-10-13T15:15:16.871Z,6.68
2023-10-13T15:17:44.238Z,7.00
2023-10-13T15:20:16.307Z,6.63
2023-10-13T15:22:44.213Z,6.22
2023-10-13T15:25:21.345Z,6.88
2023-10-13T15:27:56.087Z,7.15
2023-10-13T15:30:31.631Z,5.97
2023-10-13T15:32:59.265Z,6.57
2023-10-13T15:35:28.893Z,6.18
2023-10-13T15:37:56.559Z,6.78
2023-10-13T15:40:24.614Z,7.43
2023-10-13T15:42:54.631Z,6.40
2023-10-13T15:45:22.624Z,6.07
2023-10-13T15:50:21.773Z,6.60
2023-10-13T15:52:49.273Z,5.93
2023-10-13T15:55:18.875Z,7.78
2023-10-13T15:57:45.860Z,7.70
2023-10-13T16:00:27.203Z,7.63
2023-10-13T16:02:57.322Z,6.45
2023-10-13T16:05:35.358Z,7.00
2023-10-13T16:08:03.862Z,6.40
2023-10-13T16:10:31.553Z,6.80
2023-10-13T16:12:59.305Z,7.30
2023-10-13T16:15:27.454Z,6.87
2023-10-13T16:17:55.053Z,7.63
2023-10-13T16:20:25.403Z,5.47
2023-10-13T16:22:52.373Z,6.72
2023-10-13T16:25:21.565Z,7.22
2023-10-13T16:27:49.941Z,6.60
2023-10-13T16:30:16.966Z,6.82
2023-10-13T16:32:46.580Z,7.00
2023-10-13T16:35:16.794Z,6.47
2023-10-13T16:37:47.330Z,6.97
2023-10-13T16:40:18.892Z,6.25
2023-10-13T16:42:46.573Z,6.05
2023-10-13T16:45:16.015Z,6.18
2023-10-13T16:47:44.266Z,7.07
2023-10-13T16:50:11.763Z,6.50
2023-10-13T16:52:40.280Z,6.57
2023-10-13T16:55:09.473Z,6.57
2023-10-13T16:57:36.658Z,6.85
2023-10-13T17:00:07.097Z,6.00
2023-10-13T17:02:34.749Z,6.18
2023-10-13T17:05:03.202Z,6.68
2023-10-13T17:07:29.969Z,5.60
2023-10-13T17:09:57.108Z,7.22
2023-10-13T17:12:24.115Z,5.90
2023-10-13T17:14:53.656Z,5.88
2023-10-13T17:17:22.308Z,6.20
2023-10-13T17:19:50.053Z,6.38
2023-10-13T17:22:17.866Z,6.28
2023-10-13T17:24:44.707Z,6.43
2023-10-13T17:27:11.549Z,6.35
2023-10-13T17:29:40.780Z,6.30
2023-10-13T17:32:08.662Z,6.43
2023-10-13T17:34:35.630Z,6.50
2023-10-13T17:37:02.668Z,6.07
2023-10-13T17:39:30.282Z,6.20
2023-10-13T17:41:57.094Z,6.93
2023-10-13T17:44:24.352Z,6.65
2023-10-13T17:46:51.278Z,6.07
2023-10-13T17:49:19.244Z,6.30
2023-10-13T17:51:46.122Z,5.72
2023-10-13T17:54:13.015Z,6.50
2023-10-13T17:56:41.365Z,6.97
2023-10-13T17:59:08.177Z,6.85
2023-10-13T18:01:35.508Z,8.45
2023-10-13T18:04:04.894Z,7.03
2023-10-13T18:06:32.052Z,6.10
2023-10-13T18:08:58.976Z,5.57
2023-10-13T18:11:28.710Z,5.63
2023-10-13T18:13:56.274Z,7.03
2023-10-13T18:16:24.836Z,6.47
2023-10-13T18:18:51.795Z,6.63
2023-10-13T18:21:18.896Z,5.72
2023-10-13T18:23:51.626Z,6.68
2023-10-13T18:26:20.217Z,6.28
2023-10-13T18:28:47.366Z,6.43
2023-10-13T18:31:14.900Z,6.47
2023-10-13T18:33:42.622Z,5.85
2023-10-13T18:36:16.749Z,6.18
2023-10-13T18:38:45.050Z,6.85
2023-10-13T18:41:12.122Z,5.03
2023-10-13T18:43:40.663Z,7.32
2023-10-13T18:46:09.997Z,7.35
2023-10-13T18:48:38.623Z,7.13
2023-10-13T18:51:06.939Z,5.95
2023-10-13T18:53:35.049Z,5.68
2023-10-13T18:56:10.228Z,5.55
2023-10-13T18:58:39.982Z,7.05
2023-10-13T19:01:12.912Z,6.45
2023-10-13T19:03:41.428Z,7.00
2023-10-13T19:06:08.806Z,6.45
2023-10-13T19:08:36.202Z,5.90
2023-10-13T19:11:05.297Z,6.95
2023-10-13T19:13:32.116Z,5.72
2023-10-13T19:16:01.182Z,6.35
2023-10-13T19:18:29.836Z,5.68
2023-10-13T19:20:57.928Z,6.13
2023-10-13T19:23:27.299Z,6.15
2023-10-13T19:25:55.897Z,6.10
2023-10-13T19:28:23.687Z,6.00
2023-10-13T19:30:52.520Z,5.70
2023-10-13T19:33:20.272Z,6.00
2023-10-13T19:35:47.297Z,6.50
2023-10-13T19:38:15.689Z,5.32
2023-10-13T19:40:42.503Z,5.78
2023-10-13T19:43:12.353Z,7.47
2023-10-13T19:45:39.462Z,6.25
2023-10-13T19:48:08.781Z,6.07
2023-10-13T19:50:38.827Z,5.80
2023-10-13T19:53:11.326Z,6.38
2023-10-13T19:55:40.192Z,6.50
2023-10-13T19:58:07.810Z,5.43
2023-10-13T20:00:35.131Z,6.75
2023-10-13T20:03:02.474Z,6.00
2023-10-13T20:05:29.624Z,6.38
2023-10-13T20:07:56.444Z,5.55
2023-10-13T20:10:23.705Z,6.03
2023-10-13T20:12:54.093Z,6.32
2023-10-13T20:15:21.124Z,5.45
2023-10-13T20:17:48.171Z,5.78
2023-10-13T20:20:17.310Z,5.55
2023-10-13T20:22:45.514Z,5.93
2023-10-13T20:25:14.610Z,6.10
2023-10-13T20:27:43.690Z,6.22
2023-10-13T20:30:14.136Z,6.75
2023-10-13T20:32:46.096Z,6.68
2023-10-13T20:35:18.552Z,6.72
2023-10-13T20:37:45.303Z,6.80
2023-10-13T20:40:18.907Z,6.03
2023-10-13T20:42:49.552Z,5.72
2023-10-13T20:45:22.529Z,5.87
2023-10-13T20:47:51.057Z,6.57
2023-10-13T20:50:19.074Z,6.30
2023-10-13T20:52:46.131Z,5.93
2023-10-13T20:55:18.140Z,6.60
2023-10-13T20:57:45.490Z,5.40
2023-10-13T21:00:20.577Z,5.30
2023-10-13T21:02:48.501Z,6.10
2023-10-13T21:05:16.233Z,6.05
2023-10-13T21:07:43.406Z,6.63
2023-10-13T21:10:13.542Z,6.75
2023-10-13T21:12:42.698Z,6.03
2023-10-13T21:15:15.548Z,5.22
2023-10-13T21:17:43.386Z,5.78
2023-10-13T21:20:14.982Z,5.93
2023-10-13T21:22:42.948Z,5.80
2023-10-13T21:25:19.689Z,5.50
2023-10-13T21:27:49.432Z,6.30
2023-10-13T21:30:17.717Z,6.15
2023-10-13T21:32:44.628Z,6.10
2023-10-13T21:35:13.090Z,5.97
2023-10-13T21:37:40.734Z,5.55
2023-10-13T21:40:08.634Z,6.60
2023-10-13T21:42:36.422Z,6.15
2023-10-13T21:45:10.636Z,6.45
2023-10-13T21:47:37.529Z,6.85
2023-10-13T21:50:05.818Z,5.80
2023-10-13T21:52:34.285Z,5.70
2023-10-13T21:55:01.084Z,6.13
2023-10-13T21:57:27.911Z,6.00
2023-10-13T21:59:54.972Z,6.20
2023-10-13T22:02:21.948Z,6.23
2023-10-13T22:04:50.510Z,6.43
2023-10-13T22:07:21.581Z,5.70
2023-10-13T22:09:49.014Z,5.78
2023-10-13T22:12:19.888Z,5.88
2023-10-13T22:14:48.228Z,5.75
2023-10-13T22:17:18.777Z,6.32
2023-10-13T22:19:47.408Z,6.32
2023-10-13T22:22:14.334Z,6.55
2023-10-13T22:24:42.602Z,6.30
2023-10-13T22:27:12.030Z,5.82
2023-10-13T22:29:41.458Z,5.90
2023-10-13T22:32:09.400Z,5.32
2023-10-13T22:34:36.134Z,6.25
2023-10-13T22:37:06.347Z,6.70
2023-10-13T22:39:33.859Z,5.82
2023-10-13T22:42:00.750Z,5.22
2023-10-13T22:44:28.133Z,5.28
2023-10-13T22:46:54.965Z,5.80
2023-10-13T22:49:23.711Z,6.68
2023-10-13T22:51:50.528Z,5.65
2023-10-13T22:54:17.402Z,5.80
2023-10-13T22:56:44.633Z,5.20
2023-10-13T22:59:12.668Z,5.35
2023-10-13T23:01:42.967Z,5.57
2023-10-13T23:04:14.979Z,5.53
2023-10-13T23:06:46.493Z,5.13
2023-10-13T23:09:16.538Z,6.00
2023-10-13T23:11:48.575Z,6.13
2023-10-13T23:14:18.655Z,4.95
2023-10-13T23:16:46.872Z,5.68
2023-10-13T23:19:13.679Z,5.40
2023-10-13T23:21:40.475Z,5.47
2023-10-13T23:24:09.729Z,5.35
2023-10-13T23:26:36.482Z,5.13
2023-10-13T23:29:05.024Z,6.70
2023-10-13T23:31:32.421Z,5.18
2023-10-13T23:34:01.155Z,5.38
2023-10-13T23:36:29.439Z,5.85
2023-10-13T23:38:56.825Z,6.43
2023-10-13T23:41:27.525Z,5.35
2023-10-13T23:43:56.507Z,5.50
2023-10-13T23:46:23.540Z,5.05
2023-10-13T23:48:53.184Z,5.38
2023-10-13T23:51:21.703Z,5.38
2023-10-13T23:53:49.264Z,5.43
2023-10-13T23:56:18.551Z,5.22
2023-10-13T23:58:58.429Z,6.17
